Time;durP1;ratioP1;P1;durP2;ratioP2;P2;SDS_P1;SDS_P2;PMS_P1;PMS_P2;Temp;Humidity;BMP_temperature;BMP_pressure;BME280_temperature;BME280_humidity;BME280_pressure;Samples;Min_cycle;Max_cycle;Signal;HPM_P1;HPM_P2
2022/09/03 00:02:32;;;;;;;8.03;2.50;;;;;;;22.63;86.33;100971.81;5075403;28;20040;-58
2022/09/03 00:05:17;;;;;;;4.73;2.00;;;;;;;22.71;86.55;100970.44;5073875;28;20028;-60
2022/09/03 00:08:02;;;;;;;5.13;2.33;;;;;;;22.69;86.25;100967.19;5077136;28;20262;-60
2022/09/03 00:10:37;;;;;;;6.10;2.10;;;;;;;22.60;86.50;100975.09;5077457;28;20053;-59
2022/09/03 00:13:06;;;;;;;3.30;1.50;;;;;;;22.72;86.26;100972.06;5075492;28;20053;-59
2022/09/03 00:15:35;;;;;;;5.07;1.97;;;;;;;22.72;86.91;100979.41;5074328;28;20037;-60
2022/09/03 00:18:17;;;;;;;6.00;1.80;;;;;;;22.58;89.75;100981.88;5079599;28;20064;-58
2022/09/03 00:20:49;;;;;;;9.73;1.83;;;;;;;22.48;90.46;100972.63;5079729;28;20033;-59
2022/09/03 00:23:20;;;;;;;5.93;1.90;;;;;;;22.48;90.47;100974.53;5075719;28;20055;-58
2022/09/03 00:25:52;;;;;;;11.80;1.90;;;;;;;22.23;93.59;100970.69;5080041;28;20071;-59
2022/09/03 00:28:24;;;;;;;4.63;1.63;;;;;;;22.25;94.87;100968.50;5077257;28;20033;-60
2022/09/03 00:30:58;;;;;;;13.43;2.37;;;;;;;22.23;93.70;100965.22;5075012;28;20033;-59
2022/09/03 00:33:29;;;;;;;9.20;1.70;;;;;;;22.24;93.65;100963.34;5076847;28;20033;-60
2022/09/03 00:36:10;;;;;;;8.73;1.77;;;;;;;22.24;90.64;100964.13;5076958;28;20036;-59
2022/09/03 00:38:36;;;;;;;5.50;1.50;;;;;;;22.37;89.14;100965.50;5078675;28;20108;-58
2022/09/03 00:41:20;;;;;;;5.47;1.60;;;;;;;;;;5076533;28;20048;-60
2022/09/03 00:44:04;;;;;;;3.20;1.60;;;;;;;22.47;85.92;100971.00;5078654;28;20057;-59
2022/09/03 00:46:41;;;;;;;3.50;1.87;;;;;;;22.43;85.32;100971.78;5083752;28;20037;-58
2022/09/03 00:49:33;;;;;;;3.37;1.37;;;;;;;22.47;83.95;100971.00;5077623;28;20025;-59
2022/09/03 00:52:18;;;;;;;4.90;1.20;;;;;;;22.45;84.92;100973.16;5079585;28;20040;-58
2022/09/03 00:55:15;;;;;;;17.93;2.03;;;;;;;22.41;85.58;100966.63;5083310;28;20029;-60
2022/09/03 00:57:58;;;;;;;4.00;1.43;;;;;;;22.45;83.62;100964.97;5064812;28;20040;-60
2022/09/03 01:00:24;;;;;;;6.13;1.43;;;;;;;22.40;83.12;100970.44;5081988;28;20124;-59
2022/09/03 01:02:56;;;;;;;;;;;;;;;22.33;83.85;100969.88;5081683;28;20029;-59
2022/09/03 01:05:33;;;;;;;3.70;1.40;;;;;;;22.36;83.71;100963.88;5079958;28;19923;-60
2022/09/03 01:08:29;;;;;;;3.20;1.90;;;;;;;22.36;85.91;100963.88;5081655;28;20092;-59
2022/09/03 01:11:04;;;;;;;5.05;1.70;;;;;;;22.13;84.99;100968.75;5080428;28;20024;-59
2022/09/03 01:13:36;;;;;;;3.00;1.50;;;;;;;22.11;84.55;100968.22;5080444;28;20092;-60
2022/09/03 01:16:35;;;;;;;6.83;1.43;;;;;;;22.16;82.85;100970.97;5083561;28;20049;-60
2022/09/03 01:19:23;;;;;;;3.13;1.80;;;;;;;22.12;84.28;100963.59;5077022;28;20052;-60
2022/09/03 01:22:27;;;;;;;1.77;1.30;;;;;;;22.23;84.88;100967.16;5078805;28;20040;-58
2022/09/03 01:25:14;;;;;;;5.73;1.53;;;;;;;22.23;82.74;100970.69;5081091;28;20045;-60
2022/09/03 01:27:51;;;;;;;6.33;1.70;;;;;;;22.28;83.45;100978.03;5081798;28;20037;-60
2022/09/03 01:30:18;;;;;;;2.87;1.47;;;;;;;22.28;83.54;100967.16;5078107;28;20040;-60
2022/09/03 01:33:19;;;;;;;4.87;1.60;;;;;;;22.22;83.39;100976.41;5081219;28;20051;-60
2022/09/03 01:36:11;;;;;;;3.63;1.63;;;;;;;22.16;84.42;100981.84;5055298;28;20044;-59
2022/09/03 01:38:50;;;;;;;2.90;1.60;;;;;;;22.08;83.96;100974.19;5078362;28;20056;-60
2022/09/03 01:44:40;;;;;;;5.13;1.43;;;;;;;22.16;83.24;100972.84;5078792;28;20041;-62
2022/09/03 01:47:36;;;;;;;16.20;2.43;;;;;;;22.17;83.36;100972.59;5077169;28;20028;-60
2022/09/03 01:50:33;;;;;;;2.97;1.70;;;;;;;22.14;83.86;100972.31;5079231;28;20100;-60
2022/09/03 01:53:14;;;;;;;8.83;3.80;;;;;;;22.03;84.26;100971.47;5077727;28;20064;-60
2022/09/03 01:56:00;;;;;;;6.33;2.00;;;;;;;22.04;85.23;100962.22;5078391;28;20033;-59
2022/09/03 01:58:32;;;;;;;8.83;1.87;;;;;;;21.89;85.15;100977.44;5079741;28;20044;-61
2022/09/03 02:01:12;;;;;;;4.27;1.60;;;;;;;21.95;85.40;100974.75;5078073;28;20029;-60
2022/09/03 02:03:43;;;;;;;6.00;1.53;;;;;;;21.90;85.88;100970.91;5078054;28;20035;-60
2022/09/03 02:06:10;;;;;;;4.90;1.40;;;;;;;21.87;86.35;100978.81;5078241;28;20052;-61
2022/09/03 02:08:37;;;;;;;4.17;1.77;;;;;;;21.85;86.51;100976.34;5080294;28;20031;-60
2022/09/03 02:11:05;;;;;;;7.90;1.77;;;;;;;21.81;87.13;100974.44;5079576;28;20033;-59
2022/09/03 02:13:37;;;;;;;4.57;1.53;;;;;;;21.82;87.56;100986.97;5080036;28;20044;-60
2022/09/03 02:16:16;;;;;;;6.93;1.77;;;;;;;21.78;87.71;100976.56;5077628;28;20036;-59
2022/09/03 02:18:45;;;;;;;5.93;1.73;;;;;;;21.72;87.95;100982.31;5083830;28;20028;-60
2022/09/03 02:21:15;;;;;;;3.77;1.67;;;;;;;21.73;87.80;100978.50;5080085;28;20037;-59
2022/09/03 02:23:41;;;;;;;5.77;1.50;;;;;;;21.74;88.09;100974.69;5078489;28;20033;-60
2022/09/03 02:26:08;;;;;;;;;;;;;;;21.67;88.78;100969.47;5081900;28;20096;-60
2022/09/03 02:28:34;;;;;;;6.65;1.95;;;;;;;21.61;89.19;100974.06;5078310;28;19915;-59
2022/09/03 02:31:00;;;;;;;3.47;1.70;;;;;;;21.53;90.26;100969.13;5077093;28;20047;-59
2022/09/03 02:33:26;;;;;;;4.88;1.55;;;;;;;21.55;89.71;100964.25;5078518;28;20029;-59
2022/09/03 02:35:52;;;;;;;1.75;1.38;;;;;;;21.52;90.09;100966.66;5078568;28;20043;-60
2022/09/03 02:38:20;;;;;;;2.33;1.50;;;;;;;21.54;90.35;100969.94;5079809;28;20047;-59
2022/09/03 02:40:46;;;;;;;3.87;1.73;;;;;;;21.58;90.20;100976.50;5078548;28;20028;-60
2022/09/03 02:43:50;;;;;;;5.03;1.60;;;;;;;21.52;90.76;100972.94;5045034;28;1006771;-59
2022/09/03 02:46:26;;;;;;;6.70;2.17;;;;;;;21.58;91.97;100969.16;5080684;28;20147;-59
2022/09/03 02:48:53;;;;;;;10.52;1.88;;;;;;;21.61;91.86;100965.09;5078074;28;20084;-60
2022/09/03 02:51:19;;;;;;;2.97;1.60;;;;;;;21.52;92.91;100966.66;5079986;28;20036;-60
2022/09/03 02:53:44;;;;;;;5.10;1.75;;;;;;;21.60;92.13;100964.25;5075235;28;20097;-59
2022/09/03 02:56:11;;;;;;;5.40;1.75;;;;;;;21.67;92.20;100964.03;5079015;28;20044;-59
2022/09/03 02:58:37;;;;;;;3.72;1.75;;;;;;;21.61;92.81;100959.66;5078519;28;20028;-60
2022/09/03 03:01:03;;;;;;;2.47;1.50;;;;;;;21.73;91.64;100964.88;5078266;28;20070;-61
2022/09/03 03:03:28;;;;;;;;;;;;;;;21.69;91.05;100955.63;5081053;28;20035;-59
2022/09/03 03:05:56;;;;;;;9.73;1.77;;;;;;;21.62;90.64;100956.63;5078187;28;19913;-59
2022/09/03 03:08:26;;;;;;;7.73;2.13;;;;;;;21.68;90.89;100959.41;5082985;28;20036;-60
2022/09/03 03:10:55;;;;;;;8.00;2.07;;;;;;;21.65;91.19;100958.06;5079522;28;20048;-59
2022/09/03 03:13:22;;;;;;;5.43;1.77;;;;;;;21.56;91.04;100960.44;5080110;28;20044;-59
2022/09/03 03:15:47;;;;;;;2.97;1.48;;;;;;;21.60;90.77;100964.25;5076836;28;20029;-59
2022/09/03 03:18:16;;;;;;;6.25;1.70;;;;;;;21.52;91.15;100964.78;5078169;28;20045;-61
2022/09/03 03:20:42;;;;;;;9.20;2.13;;;;;;;21.39;92.56;100967.97;5081840;28;20052;-60
2022/09/03 03:23:08;;;;;;;;;;;;;;;21.40;92.82;100964.19;5076886;28;20057;-59
2022/09/03 03:25:34;;;;;;;3.50;1.77;;;;;;;21.39;92.45;100965.25;5079349;28;19912;-60
2022/09/03 03:28:00;;;;;;;3.40;1.60;;;;;;;21.39;91.60;100959.81;5078886;28;20119;-61
2022/09/03 03:30:26;;;;;;;3.25;1.77;;;;;;;21.41;92.58;100966.63;5079816;28;20043;-61
2022/09/03 03:32:53;;;;;;;5.83;1.70;;;;;;;21.32;92.58;100952.72;5076338;28;20096;-60
2022/09/03 03:35:19;;;;;;;4.30;1.60;;;;;;;21.37;92.45;100956.53;5076882;28;20037;-60
2022/09/03 03:37:45;;;;;;;;;;;;;;;21.45;91.81;100953.31;5080980;28;20040;-59
2022/09/03 03:40:11;;;;;;;8.03;1.70;;;;;;;21.31;92.45;100952.97;5078632;28;19935;-59
2022/09/03 03:42:37;;;;;;;4.82;1.80;;;;;;;21.18;93.65;100951.56;5079702;28;20046;-60
2022/09/03 03:45:04;;;;;;;5.53;1.70;;;;;;;21.17;93.42;100952.66;5078591;28;20068;-59
2022/09/03 03:47:32;;;;;;;4.17;1.43;;;;;;;21.13;93.23;100960.53;5079914;28;20055;-60
2022/09/03 03:49:58;;;;;;;5.97;1.93;;;;;;;21.14;92.92;100964.06;5080438;28;20053;-59
2022/09/03 03:52:26;;;;;;;10.17;2.30;;;;;;;21.10;93.94;100954.78;5076300;28;20034;-59
2022/09/03 03:54:52;;;;;;;5.50;1.73;;;;;;;21.05;94.53;100953.69;5079557;28;20281;-60
2022/09/03 03:57:20;;;;;;;3.40;1.40;;;;;;;20.98;95.17;100950.38;5077499;28;20041;-59
2022/09/03 03:59:46;;;;;;;6.53;2.03;;;;;;;21.04;95.02;100956.66;5079439;28;20274;-60
2022/09/03 04:02:13;;;;;;;2.77;1.60;;;;;;;21.02;95.11;100947.94;5079728;28;20037;-59
2022/09/03 04:04:39;;;;;;;3.03;1.70;;;;;;;20.96;95.93;100946.28;5081412;28;20272;-60
2022/09/03 04:07:06;;;;;;;;;;;;;;;21.01;96.15;100949.88;5079039;28;20100;-59
2022/09/03 04:09:32;;;;;;;3.43;1.67;;;;;;;20.90;97.63;100948.97;5077233;28;19928;-60
2022/09/03 04:11:57;;;;;;;7.40;1.58;;;;;;;20.81;97.75;100947.00;5077065;28;20037;-60
2022/09/03 04:14:23;;;;;;;6.78;1.90;;;;;;;20.60;97.50;100946.84;5077050;28;20096;-60
2022/09/03 04:16:49;;;;;;;6.82;1.75;;;;;;;20.75;98.22;100952.38;5070819;28;20265;-60
2022/09/03 04:19:16;;;;;;;2.80;1.60;;;;;;;20.85;97.79;100956.28;5072573;28;20099;-60
2022/09/03 04:21:42;;;;;;;5.23;1.90;;;;;;;20.85;97.30;100954.34;5071979;28;21153;-60
2022/09/03 04:24:07;;;;;;;3.78;1.60;;;;;;;20.68;98.31;100954.50;5073759;28;20289;-60
2022/09/03 04:26:34;;;;;;;6.28;1.95;;;;;;;20.62;98.54;100952.81;5075094;28;20037;-60
2022/09/03 04:29:01;;;;;;;;;;;;;;;20.59;99.20;100947.91;5076755;28;20060;-61
2022/09/03 04:31:26;;;;;;;4.55;1.83;;;;;;;20.59;98.32;100946.00;5075468;28;19912;-60
2022/09/03 04:33:53;;;;;;;3.08;1.83;;;;;;;20.59;99.17;100951.44;5076469;28;20063;-61
2022/09/03 04:36:22;;;;;;;3.43;1.50;;;;;;;20.50;99.59;100955.72;5077759;28;20201;-60
2022/09/03 04:38:49;;;;;;;3.50;1.63;;;;;;;20.46;100.00;100947.28;5080433;28;20279;-60
2022/09/03 04:41:20;;;;;;;7.67;1.77;;;;;;;20.38;100.00;100942.31;5081374;28;20299;-61
2022/09/03 04:43:47;;;;;;;4.70;1.90;;;;;;;20.39;100.00;100941.25;5077987;28;20292;-60
2022/09/03 04:46:15;;;;;;;5.73;2.17;;;;;;;20.27;100.00;100935.16;5073302;28;20269;-61
2022/09/03 04:48:41;;;;;;;4.07;2.03;;;;;;;20.20;100.00;100944.34;5073820;28;20270;-63
2022/09/03 04:51:08;;;;;;;5.13;1.85;;;;;;;20.23;100.00;100942.19;5073953;28;20336;-60
2022/09/03 04:53:36;;;;;;;6.53;2.17;;;;;;;20.22;100.00;100945.97;5074873;28;20047;-60
2022/09/03 04:56:11;;;;;;;3.43;1.80;;;;;;;20.23;100.00;100937.59;5077255;28;20265;-60
2022/09/03 04:58:37;;;;;;;3.20;1.70;;;;;;;20.16;100.00;100940.50;5075809;28;20277;-60
2022/09/03 05:01:10;;;;;;;4.67;1.90;;;;;;;20.19;100.00;100941.91;5076250;28;20300;-60
2022/09/03 05:03:36;;;;;;;3.87;1.97;;;;;;;20.20;100.00;100943.53;5076294;28;20029;-60
2022/09/03 05:06:02;;;;;;;4.78;1.88;;;;;;;20.26;100.00;100947.09;5075430;28;20329;-60
2022/09/03 05:08:28;;;;;;;4.63;2.08;;;;;;;20.23;100.00;100950.31;5077778;28;20025;-61
2022/09/03 05:11:00;;;;;;;7.22;2.72;;;;;;;20.19;100.00;100952.75;5075462;28;20040;-60
2022/09/03 05:13:27;;;;;;;5.60;2.20;;;;;;;20.10;100.00;100948.84;5075509;28;20029;-60
2022/09/03 05:16:00;;;;;;;6.20;3.23;;;;;;;20.11;100.00;100950.50;5078418;28;20270;-58
2022/09/03 05:18:27;;;;;;;17.50;8.20;;;;;;;20.09;100.00;100956.19;5071530;28;20265;-59
2022/09/03 05:21:00;;;;;;;7.60;2.58;;;;;;;19.84;100.00;100946.69;5075351;28;20297;-59
2022/09/03 05:23:27;;;;;;;10.07;2.90;;;;;;;19.87;100.00;100957.03;5070234;28;20029;-60
2022/09/03 05:25:58;;;;;;;5.67;2.33;;;;;;;20.04;100.00;100951.53;5073023;28;20308;-60
2022/09/03 05:28:26;;;;;;;9.70;3.13;;;;;;;20.16;100.00;100950.53;5071923;28;20278;-60
2022/09/03 05:31:07;;;;;;;5.47;2.83;;;;;;;20.27;100.00;100957.72;5078271;28;20265;-60
2022/09/03 05:33:41;;;;;;;4.33;2.70;;;;;;;20.29;100.00;100949.28;5079504;28;20382;-60
2022/09/03 05:36:09;;;;;;;5.07;2.03;;;;;;;20.34;100.00;100949.34;5075196;28;20269;-60
2022/09/03 05:38:36;;;;;;;6.87;2.80;;;;;;;20.41;100.00;100952.66;5081862;28;20291;-59
2022/09/03 05:41:04;;;;;;;5.20;1.90;;;;;;;20.42;100.00;100950.78;5079763;28;20262;-58
2022/09/03 05:43:31;;;;;;;4.07;2.30;;;;;;;20.46;100.00;100949.97;5078925;28;20075;-60
2022/09/03 05:46:06;;;;;;;6.37;1.93;;;;;;;20.58;100.00;100952.53;5081617;28;20341;-60
2022/09/03 05:48:33;;;;;;;3.90;2.10;;;;;;;20.63;100.00;100951.75;5084680;28;20270;-58
2022/09/03 05:51:17;;;;;;;6.60;2.47;;;;;;;20.63;100.00;100957.19;5074605;28;20274;-59
2022/09/03 05:53:45;;;;;;;7.30;2.97;;;;;;;20.69;100.00;100963.47;5072361;28;20302;-60
2022/09/03 05:56:19;;;;;;;5.53;2.47;;;;;;;20.59;100.00;100962.31;5074199;28;20361;-60
2022/09/03 05:58:48;;;;;;;22.03;3.70;;;;;;;20.54;100.00;100961.47;5077497;28;20261;-60
2022/09/03 06:01:25;;;;;;;8.07;2.63;;;;;;;20.32;100.00;100952.31;5075082;28;20277;-60
2022/09/03 06:03:55;;;;;;;10.00;2.47;;;;;;;20.60;100.00;100952.28;5074290;28;20305;-60
2022/09/03 06:06:24;;;;;;;3.47;1.77;;;;;;;20.64;100.00;100958.81;5079449;28;20261;-61
2022/09/03 06:08:50;;;;;;;5.13;2.03;;;;;;;20.73;100.00;100957.25;5075045;28;20313;-60
2022/09/03 06:11:16;;;;;;;3.53;1.70;;;;;;;20.62;100.00;100961.78;5079782;28;20032;-61
2022/09/03 06:13:41;;;;;;;5.28;2.10;;;;;;;20.75;100.00;100963.22;5080907;28;20290;-61
2022/09/03 06:16:08;;;;;;;3.13;1.50;;;;;;;20.56;100.00;100962.84;5080116;28;20060;-60
2022/09/03 06:18:34;;;;;;;3.90;1.70;;;;;;;20.54;100.00;100959.56;5080290;28;20048;-60
2022/09/03 06:21:02;;;;;;;4.35;2.60;;;;;;;20.54;100.00;100958.75;5075757;28;20036;-61
2022/09/03 06:23:29;;;;;;;8.00;2.70;;;;;;;20.65;100.00;100962.38;5075943;28;20021;-61
2022/09/03 06:26:00;;;;;;;7.63;2.37;;;;;;;20.63;100.00;100960.69;5073862;28;20065;-61
2022/09/03 06:28:26;;;;;;;4.10;2.20;;;;;;;20.68;100.00;100961.84;5070761;28;20262;-60
2022/09/03 06:30:52;;;;;;;4.55;1.70;;;;;;;20.87;100.00;100957.63;5075508;28;20032;-60
2022/09/03 06:33:18;;;;;;;7.90;2.13;;;;;;;20.96;100.00;100960.69;5078274;28;20033;-60
2022/09/03 06:35:43;;;;;;;4.83;1.90;;;;;;;20.98;100.00;100957.72;5079117;28;20040;-61
2022/09/03 06:38:11;;;;;;;7.60;3.10;;;;;;;21.06;99.96;100966.19;5080838;28;20075;-60
2022/09/03 06:40:37;;;;;;;10.70;2.70;;;;;;;20.91;100.00;100969.66;5078971;28;20044;-60
2022/09/03 06:43:02;;;;;;;3.53;1.60;;;;;;;20.91;99.87;100972.38;5084948;28;20053;-61
2022/09/03 06:45:31;;;;;;;7.20;2.22;;;;;;;21.00;99.90;100971.88;5077947;28;20075;-61
2022/09/03 06:47:57;;;;;;;6.60;1.73;;;;;;;21.10;98.61;100971.09;5077962;28;20056;-60
2022/09/03 06:50:22;;;;;;;7.45;1.88;;;;;;;21.06;97.75;100974.34;5082244;28;20033;-60
2022/09/03 06:52:53;;;;;;;5.30;2.00;;;;;;;21.35;95.93;100971.22;5074657;28;20025;-59
2022/09/03 06:55:21;;;;;;;4.70;1.97;;;;;;;21.44;95.06;100970.72;5076854;28;20067;-61
2022/09/03 06:57:48;;;;;;;9.77;3.40;;;;;;;21.39;95.12;100967.97;5071330;28;20044;-61
2022/09/03 07:00:14;;;;;;;;;;;;;;;21.21;95.12;100964.63;5079400;28;20032;-60
2022/09/03 07:02:40;;;;;;;5.97;2.90;;;;;;;21.41;94.82;100963.09;5074465;28;19924;-61
2022/09/03 07:05:07;;;;;;;;;;;;;;;21.79;92.27;100969.25;5076380;28;20044;-60
2022/09/03 07:07:32;;;;;;;8.47;3.03;;;;;;;21.86;90.82;100961.63;5077452;28;19921;-61
2022/09/03 07:09:57;;;;;;;6.43;2.30;;;;;;;22.00;89.75;100963.84;5076258;28;20040;-60
2022/09/03 07:12:23;;;;;;;4.20;1.70;;;;;;;22.11;88.94;100968.22;5074342;28;20033;-60
2022/09/03 07:14:49;;;;;;;8.35;2.10;;;;;;;22.22;88.39;100969.03;5075720;28;20112;-61
2022/09/03 07:17:15;;;;;;;8.45;2.58;;;;;;;22.20;88.37;100969.34;5079350;28;20090;-62
2022/09/03 07:19:40;;;;;;;5.40;1.50;;;;;;;22.33;87.02;100969.88;5081700;28;20044;-61
2022/09/03 07:22:08;;;;;;;6.85;1.73;;;;;;;22.46;86.25;100968.50;5080420;28;20039;-60
2022/09/03 07:24:34;;;;;;;7.70;2.23;;;;;;;22.57;85.76;100975.63;5079148;28;20029;-61
2022/09/03 07:27:00;;;;;;;5.97;2.00;;;;;;;22.63;86.02;100979.19;5077858;28;20037;-60
2022/09/03 07:29:26;;;;;;;4.20;2.00;;;;;;;22.66;85.92;100980.53;5078220;28;20037;-60
2022/09/03 07:31:51;;;;;;;8.60;2.25;;;;;;;22.77;85.41;100980.25;5073911;28;20037;-60
2022/09/03 07:34:18;;;;;;;6.35;2.20;;;;;;;22.63;86.33;100985.44;5073875;28;20037;-60
2022/09/03 07:36:46;;;;;;;9.13;2.00;;;;;;;22.55;85.86;100987.88;5072506;28;20032;-61
2022/09/03 07:39:13;;;;;;;10.40;2.03;;;;;;;22.68;86.08;100979.16;5075160;28;20029;-61
2022/09/03 07:41:42;;;;;;;4.63;2.47;;;;;;;22.84;85.28;100979.97;5074613;28;20036;-60
2022/09/03 07:44:07;;;;;;;6.50;2.47;;;;;;;22.95;83.68;100975.31;5074457;28;20037;-61
2022/09/03 07:46:35;;;;;;;7.82;2.10;;;;;;;22.57;85.87;100980.25;5073160;28;20060;-60
2022/09/03 07:49:01;;;;;;;10.53;3.17;;;;;;;23.05;83.34;100982.66;5076054;28;20091;-60
2022/09/03 07:51:29;;;;;;;8.57;1.95;;;;;;;23.04;82.83;100979.09;5076393;28;20128;-60
2022/09/03 07:54:00;;;;;;;7.00;1.80;;;;;;;23.05;82.71;100979.94;5075940;28;20033;-60
2022/09/03 07:56:29;;;;;;;9.17;2.30;;;;;;;23.23;81.78;100986.69;5075000;28;20033;-60
2022/09/03 07:58:56;;;;;;;6.83;1.80;;;;;;;23.23;81.54;100977.69;5075486;28;20040;-60
2022/09/03 08:01:22;;;;;;;;;;;;;;;23.35;80.75;100983.69;5072771;28;20044;-60
2022/09/03 08:03:49;;;;;;;9.03;2.17;;;;;;;23.38;79.82;100983.13;5073386;28;19916;-61
2022/09/03 08:06:17;;;;;;;4.73;1.70;;;;;;;23.40;79.32;100977.41;5073207;28;20044;-60
2022/09/03 08:08:44;;;;;;;5.90;1.67;;;;;;;23.51;78.77;100981.69;5070877;28;20040;-60
2022/09/03 08:11:19;;;;;;;8.90;1.70;;;;;;;23.63;77.94;100979.47;5074322;28;20036;-61
2022/09/03 08:13:47;;;;;;;3.13;1.40;;;;;;;23.48;78.45;100985.00;5070487;28;20030;-60
2022/09/03 08:16:15;;;;;;;4.17;1.80;;;;;;;23.70;78.56;100986.53;5077052;28;20028;-61
2022/09/03 08:18:41;;;;;;;7.33;2.13;;;;;;;23.95;77.04;100987.47;5068265;28;20029;-60
2022/09/03 08:21:08;;;;;;;;;;;;;;;24.01;75.63;100994.56;5072139;28;20033;-60
2022/09/03 08:23:41;;;;;;;4.93;1.30;;;;;;;23.94;74.94;100991.31;5074994;28;19948;-60
2022/09/03 08:26:08;;;;;;;6.23;1.93;;;;;;;23.75;73.62;100990.06;5073137;28;20063;-60
2022/09/03 08:28:35;;;;;;;3.10;1.40;;;;;;;23.81;74.01;100990.03;5076292;28;20051;-61
2022/09/03 08:31:08;;;;;;;5.13;1.40;;;;;;;24.00;72.95;100982.81;5076736;28;20096;-61
2022/09/03 08:33:37;;;;;;;4.87;1.60;;;;;;;24.13;73.27;100991.53;5073282;28;20055;-61
2022/09/03 08:36:08;;;;;;;8.07;1.67;;;;;;;24.11;72.69;100983.59;5077221;28;20040;-60
2022/09/03 08:38:35;;;;;;;3.27;1.30;;;;;;;24.32;71.47;100988.91;5076915;28;20029;-60
2022/09/03 08:41:10;;;;;;;5.73;1.97;;;;;;;24.20;71.45;100992.81;5076739;28;20037;-60
2022/09/03 08:43:54;;;;;;;7.33;1.40;;;;;;;24.31;71.41;100993.53;5076956;28;20104;-61
2022/09/03 08:46:23;;;;;;;4.80;1.60;;;;;;;24.27;69.18;100989.75;5071546;28;20048;-60
2022/09/03 08:48:49;;;;;;;3.20;1.47;;;;;;;24.42;70.13;100998.94;5073323;28;20091;-61
2022/09/03 08:51:17;;;;;;;4.07;1.60;;;;;;;24.54;69.46;101007.59;5071761;28;20040;-61
2022/09/03 08:53:48;;;;;;;8.67;1.83;;;;;;;24.66;68.80;100999.00;5071668;28;20033;-60
2022/09/03 08:56:20;;;;;;;8.33;1.50;;;;;;;24.81;68.08;101000.84;5073179;28;20208;-61
2022/09/03 08:58:45;;;;;;;3.37;1.50;;;;;;;24.85;67.67;100995.59;5070962;28;20051;-60
2022/09/03 09:01:40;;;;;;;8.77;1.50;;;;;;;25.12;66.50;101003.25;5074722;28;20109;-60
2022/09/03 09:04:47;;;;;;;5.43;1.97;;;;;;;25.43;65.30;101004.81;5078142;28;20046;-60
2022/09/03 09:07:30;;;;;;;5.68;1.50;;;;;;;25.85;62.85;100997.75;5078471;28;20100;-60
2022/09/03 09:10:27;;;;;;;8.20;1.77;;;;;;;26.29;60.35;100997.66;5079039;28;20032;-60
2022/09/03 09:13:03;;;;;;;5.57;2.47;;;;;;;26.90;57.90;100995.84;5076438;28;20045;-61
2022/09/03 09:15:41;;;;;;;9.43;1.73;;;;;;;27.60;55.56;101001.34;5079744;28;20028;-60
2022/09/03 09:18:19;;;;;;;6.63;1.80;;;;;;;28.23;53.58;101002.72;5081161;28;20029;-60
2022/09/03 09:21:12;;;;;;;5.13;1.60;;;;;;;28.52;51.79;101010.53;5080118;28;20028;-60
2022/09/03 09:23:49;;;;;;;4.15;1.42;;;;;;;28.68;50.45;101010.97;5074048;28;20029;-61
2022/09/03 09:26:17;;;;;;;4.85;1.65;;;;;;;29.21;48.95;101016.72;5076425;28;20036;-59
2022/09/03 09:28:46;;;;;;;5.50;2.38;;;;;;;29.28;47.57;101017.06;5072063;28;20096;-60
2022/09/03 09:31:17;;;;;;;4.40;1.73;;;;;;;30.10;46.15;101020.50;5075645;28;20063;-61
2022/09/03 09:33:44;;;;;;;7.38;1.88;;;;;;;30.56;44.80;101018.19;5077867;28;20040;-61
2022/09/03 09:36:15;;;;;;;12.55;1.50;;;;;;;31.01;43.71;101022.44;5075837;28;20032;-61
2022/09/03 09:38:41;;;;;;;4.82;1.67;;;;;;;31.48;42.06;101019.63;5075805;28;20036;-60
2022/09/03 09:41:09;;;;;;;9.50;1.70;;;;;;;31.62;41.68;101018.59;5078040;28;20040;-60
2022/09/03 09:43:35;;;;;;;3.95;1.33;;;;;;;32.15;40.40;101019.03;5076145;28;20049;-61
2022/09/03 09:46:13;;;;;;;4.32;1.80;;;;;;;31.84;40.86;101008.38;5078960;28;20072;-60
2022/09/03 09:48:47;;;;;;;10.23;1.85;;;;;;;32.32;40.23;101018.06;5076646;28;20040;-61
2022/09/03 09:51:16;;;;;;;7.78;1.60;;;;;;;32.83;39.44;101019.81;5075402;28;20033;-60
2022/09/03 09:53:43;;;;;;;7.05;1.60;;;;;;;32.76;39.26;101019.56;5080537;28;20081;-60
2022/09/03 09:56:29;;;;;;;6.40;1.73;;;;;;;33.28;37.92;101029.22;5078811;28;20037;-60
2022/09/03 09:59:06;;;;;;;;;;;;;;;33.35;37.89;101022.28;5079679;28;20099;-61
2022/09/03 10:01:33;;;;;;;4.93;1.75;;;;;;;33.54;37.23;101027.25;5079024;28;19909;-60
2022/09/03 10:04:07;;;;;;;4.47;1.75;;;;;;;33.79;36.92;101033.56;5078869;28;20041;-61
2022/09/03 10:06:52;;;;;;;5.97;1.60;;;;;;;33.85;36.59;101026.59;5078523;28;20039;-61
2022/09/03 10:09:22;;;;;;;6.80;1.65;;;;;;;34.41;35.74;101035.31;5070776;28;20033;-61
2022/09/03 10:11:56;;;;;;;9.23;1.67;;;;;;;34.53;35.49;101040.03;5069137;28;20089;-60
2022/09/03 10:14:31;;;;;;;10.77;1.50;;;;;;;34.77;35.26;101032.72;5073235;28;20029;-61
2022/09/03 10:17:11;;;;;;;6.82;1.90;;;;;;;34.94;34.91;101032.34;5073989;28;20089;-61
2022/09/03 10:20:25;;;;;;;3.75;1.40;;;;;;;35.30;34.58;101022.16;5074147;28;20033;-61
2022/09/03 10:22:45;;;;;;;3.38;1.50;;;;;;;35.33;34.44;101026.16;5072078;28;20041;-62
2022/09/03 10:25:14;;;;;;;4.43;1.55;;;;;;;35.45;34.22;101028.84;5076672;28;20121;-62
2022/09/03 10:27:44;;;;;;;6.63;1.85;;;;;;;35.62;34.04;101026.03;5078099;28;20025;-61
2022/09/03 10:30:14;;;;;;;5.80;1.70;;;;;;;35.83;33.57;101020.94;5079726;28;20041;-59
2022/09/03 10:33:12;;;;;;;4.97;2.70;;;;;;;36.02;33.63;101022.94;5077231;28;20048;-60
2022/09/03 10:35:50;;;;;;;26.33;20.02;;;;;;;36.14;33.35;101021.97;5076834;28;20032;-59
2022/09/03 10:38:35;;;;;;;24.27;17.60;;;;;;;36.62;32.56;101029.22;5070569;28;20025;-60
2022/09/03 10:41:28;;;;;;;23.10;15.98;;;;;;;36.87;32.09;101024.09;5076934;28;20166;-61
2022/09/03 10:44:13;;;;;;;17.02;8.68;;;;;;;37.24;31.57;101033.03;5070297;28;20045;-62
2022/09/03 10:46:53;;;;;;;50.80;32.95;;;;;;;37.44;30.56;101025.38;5074810;28;20052;-60
2022/09/03 10:49:30;;;;;;;56.40;38.75;;;;;;;37.45;30.71;101025.00;5074963;28;20040;-61
2022/09/03 10:52:15;;;;;;;33.88;22.17;;;;;;;37.58;30.73;101027.59;5079102;28;20043;-61
2022/09/03 10:55:21;;;;;;;27.45;16.50;;;;;;;37.97;30.23;101023.72;5078551;28;20044;-61
2022/09/03 10:58:39;;;;;;;14.88;6.47;;;;;;;38.02;29.48;101031.75;5068873;28;20048;-62
2022/09/03 11:01:25;;;;;;;30.60;20.85;;;;;;;37.98;30.28;101011.38;5076572;28;20037;-60
2022/09/03 11:04:21;;;;;;;38.70;26.58;;;;;;;37.67;29.93;101021.72;5076447;28;20060;-60
2022/09/03 11:07:04;;;;;;;30.80;16.73;;;;;;;37.77;29.45;101021.06;5078337;28;20037;-60
2022/09/03 11:09:35;;;;;;;10.52;1.58;;;;;;;38.12;28.87;101031.06;5077531;28;20051;-61
2022/09/03 11:12:20;;;;;;;11.10;5.93;;;;;;;38.46;28.91;101018.28;5076880;28;20028;-60
2022/09/03 11:14:58;;;;;;;8.23;3.80;;;;;;;38.80;28.41;101029.38;5076533;28;20029;-60
2022/09/03 11:17:28;;;;;;;6.57;3.17;;;;;;;39.20;28.52;101022.06;5079298;28;20024;-61
2022/09/03 11:20:17;;;;;;;9.45;2.92;;;;;;;39.57;27.87;101014.75;5083348;28;20032;-59
2022/09/03 11:22:45;;;;;;;9.38;5.03;;;;;;;39.60;27.61;101021.53;5077529;28;20029;-58
2022/09/03 11:25:14;;;;;;;34.80;18.15;;;;;;;39.09;28.39;101012.84;5075328;28;20028;-60
2022/09/03 11:27:40;;;;;;;39.63;24.67;;;;;;;39.98;28.02;101016.50;5072644;28;20037;-60
2022/09/03 11:30:09;;;;;;;24.35;12.40;;;;;;;40.13;27.36;101012.53;5078496;28;20036;-59
2022/09/03 11:32:45;;;;;;;18.80;10.55;;;;;;;40.34;27.27;101002.59;5076591;28;20029;-61
2022/09/03 11:35:23;;;;;;;11.43;6.97;;;;;;;40.54;26.67;101005.84;5072692;28;20036;-60
2022/09/03 11:37:57;;;;;;;11.65;5.00;;;;;;;40.35;27.29;100995.00;5078996;28;20029;-60
2022/09/03 11:40:31;;;;;;;10.50;2.30;;;;;;;39.97;26.77;101009.31;5073378;28;20048;-59
2022/09/03 11:43:25;;;;;;;9.02;2.40;;;;;;;40.24;26.71;100997.78;5072600;28;20052;-59
2022/09/03 11:46:13;;;;;;;5.95;1.65;;;;;;;41.03;26.08;100999.00;5077800;28;20098;-59
2022/09/03 11:48:44;;;;;;;4.00;1.42;;;;;;;40.22;25.96;100991.78;5072320;28;20028;-58
2022/09/03 11:51:32;;;;;;;5.88;1.60;;;;;;;39.10;26.70;100997.66;5077024;28;20028;-60
2022/09/03 11:54:02;;;;;;;3.95;1.13;;;;;;;40.20;26.75;101000.56;5076752;28;20052;-59
2022/09/03 11:56:29;;;;;;;4.00;1.52;;;;;;;37.97;27.46;100987.44;5079161;28;20033;-60